createdAt,value
2022-10-23T00:01:38.225Z,12.42
2022-10-23T00:04:08.708Z,12.43
2022-10-23T00:06:35.539Z,12.42
2022-10-23T00:09:02.335Z,12.38
2022-10-23T00:11:29.898Z,12.34
2022-10-23T00:13:57.814Z,12.32
2022-10-23T00:16:24.338Z,12.28
2022-10-23T00:18:50.816Z,12.21
2022-10-23T00:21:17.660Z,12.13
2022-10-23T00:23:44.419Z,12.07
2022-10-23T00:26:15.107Z,12.06
2022-10-23T00:28:42.944Z,12.07
2022-10-23T00:31:09.425Z,12.09
2022-10-23T00:33:36.150Z,12.10
2022-10-23T00:36:06.629Z,12.09
2022-10-23T00:38:33.258Z,12.08
2022-10-23T00:41:00.023Z,12.06
2022-10-23T00:43:27.721Z,12.05
2022-10-23T00:45:54.072Z,12.03
2022-10-23T00:48:20.607Z,12.00
2022-10-23T00:50:56.703Z,11.95
2022-10-23T00:53:23.655Z,11.92
2022-10-23T00:55:51.202Z,11.84
2022-10-23T00:58:19.959Z,11.83
2022-10-23T01:00:46.226Z,11.84
2022-10-23T01:03:15.286Z,11.85
2022-10-23T01:08:23.011Z,11.80
2022-10-23T01:10:54.112Z,11.79
2022-10-23T01:13:35.224Z,11.74
2022-10-23T01:16:21.853Z,11.72
2022-10-23T01:19:01.693Z,11.70
2022-10-23T01:21:33.928Z,11.66
2022-10-23T01:24:19.763Z,11.66
2022-10-23T01:26:54.918Z,11.62
2022-10-23T01:29:25.378Z,11.57
2022-10-23T01:31:51.711Z,11.59
2022-10-23T01:34:23.320Z,11.60
2022-10-23T01:36:50.882Z,11.53
2022-10-23T01:39:47.767Z,11.54
2022-10-23T01:42:18.022Z,11.56
2022-10-23T01:44:46.946Z,11.54
2022-10-23T01:47:14.234Z,11.52
2022-10-23T01:49:41.950Z,11.50
2022-10-23T01:52:09.691Z,11.55
2022-10-23T01:54:39.210Z,11.56
2022-10-23T01:57:18.077Z,11.57
2022-10-23T01:59:47.248Z,11.56
2022-10-23T02:02:15.344Z,11.57
2022-10-23T02:04:50.843Z,11.55
2022-10-23T02:07:17.199Z,11.52
2022-10-23T02:09:52.162Z,11.54
2022-10-23T02:12:38.707Z,11.53
2022-10-23T02:15:27.198Z,11.44
2022-10-23T02:18:03.013Z,11.46
2022-10-23T02:20:32.818Z,11.49
2022-10-23T02:23:08.428Z,11.51
2022-10-23T02:25:41.329Z,11.52
2022-10-23T02:28:10.626Z,11.49
2022-10-23T02:30:39.099Z,11.46
2022-10-23T02:33:08.580Z,11.50
2022-10-23T02:35:35.403Z,11.49
2022-10-23T02:38:01.810Z,11.51
2022-10-23T02:40:36.230Z,11.55
2022-10-23T02:43:08.165Z,11.41
2022-10-23T02:45:54.715Z,11.45
2022-10-23T02:48:30.437Z,11.40
2022-10-23T02:51:00.639Z,11.41
2022-10-23T02:53:35.909Z,11.46
2022-10-23T02:56:02.236Z,11.50
2022-10-23T02:58:37.315Z,11.53
2022-10-23T03:01:09.568Z,11.55
2022-10-23T03:03:39.466Z,11.54
2022-10-23T03:06:08.648Z,11.55
2022-10-23T03:09:04.362Z,11.55
2022-10-23T03:11:30.648Z,11.51
2022-10-23T03:13:56.976Z,11.52
2022-10-23T03:16:26.239Z,11.55
2022-10-23T03:18:52.948Z,11.58
2022-10-23T03:21:19.327Z,11.60
2022-10-23T03:23:45.623Z,11.61
2022-10-23T03:26:11.907Z,11.59
2022-10-23T03:28:41.052Z,11.53
2022-10-23T03:31:07.419Z,11.37
2022-10-23T03:33:33.733Z,11.34
2022-10-23T03:36:00.038Z,11.37
2022-10-23T03:38:26.330Z,11.44
2022-10-23T03:40:52.638Z,11.46
2022-10-23T03:43:19.010Z,11.42
2022-10-23T03:45:45.295Z,11.44
2022-10-23T03:48:20.611Z,11.40
2022-10-23T03:50:47.490Z,11.43
2022-10-23T03:53:13.787Z,11.46
2022-10-23T03:55:46.047Z,11.48
2022-10-23T03:58:12.426Z,11.51
2022-10-23T04:00:38.821Z,11.52
2022-10-23T04:03:05.187Z,11.51
2022-10-23T04:05:31.540Z,11.56
2022-10-23T04:07:57.875Z,11.57
2022-10-23T04:10:24.163Z,11.59
2022-10-23T04:12:50.496Z,11.58
2022-10-23T04:15:19.527Z,11.55
2022-10-23T04:17:45.825Z,11.51
2022-10-23T04:20:12.131Z,11.49
2022-10-23T04:22:41.509Z,11.51
2022-10-23T04:25:08.315Z,11.57
2022-10-23T04:27:34.924Z,11.61
2022-10-23T04:30:04.465Z,11.64
2022-10-23T04:32:31.385Z,11.64
2022-10-23T04:34:57.692Z,11.66
2022-10-23T04:37:24.023Z,11.65
2022-10-23T04:39:50.367Z,11.65
2022-10-23T04:42:16.764Z,11.65
2022-10-23T04:44:43.112Z,11.70
2022-10-23T04:47:09.410Z,11.71
2022-10-23T04:49:35.810Z,11.70
2022-10-23T04:52:05.079Z,11.69
2022-10-23T04:54:35.548Z,11.68
2022-10-23T04:57:09.449Z,11.68
2022-10-23T04:59:35.759Z,11.69
2022-10-23T05:02:02.165Z,11.70
2022-10-23T05:04:28.547Z,11.68
2022-10-23T05:06:54.887Z,11.66
2022-10-23T05:09:22.275Z,11.69
2022-10-23T05:11:48.687Z,11.69
2022-10-23T05:14:18.082Z,11.64
2022-10-23T05:16:45.575Z,11.65
2022-10-23T05:19:14.691Z,11.66
2022-10-23T05:21:41.538Z,11.69
2022-10-23T05:24:08.064Z,11.72
2022-10-23T05:26:34.428Z,11.74
2022-10-23T05:29:00.820Z,11.77
2022-10-23T05:31:27.319Z,11.78
2022-10-23T05:33:55.143Z,11.80
2022-10-23T05:36:22.579Z,11.80
2022-10-23T05:38:49.044Z,11.77
2022-10-23T05:41:15.417Z,11.69
2022-10-23T05:43:41.767Z,11.70
2022-10-23T05:46:08.077Z,11.74
2022-10-23T05:48:35.337Z,11.77
2022-10-23T05:51:05.798Z,11.76
2022-10-23T05:53:32.199Z,11.76
2022-10-23T05:56:03.681Z,11.76
2022-10-23T05:58:30.250Z,11.80
2022-10-23T06:00:56.700Z,11.82
2022-10-23T06:03:23.055Z,11.88
2022-10-23T06:05:50.607Z,11.87
2022-10-23T06:08:17.340Z,11.87
2022-10-23T06:10:43.949Z,11.89
2022-10-23T06:13:10.315Z,11.90
2022-10-23T06:15:36.948Z,11.92
2022-10-23T06:18:04.374Z,11.89
2022-10-23T06:20:30.658Z,11.85
2022-10-23T06:23:04.031Z,11.85
2022-10-23T06:25:30.320Z,11.89
2022-10-23T06:27:56.603Z,11.93
2022-10-23T06:30:22.971Z,11.94
2022-10-23T06:32:49.274Z,11.95
2022-10-23T06:35:15.798Z,11.96
2022-10-23T06:37:42.098Z,11.98
2022-10-23T06:40:08.799Z,12.03
2022-10-23T06:42:35.339Z,12.01
2022-10-23T06:45:06.404Z,12.02
2022-10-23T06:47:33.510Z,12.07
2022-10-23T06:49:59.799Z,12.09
2022-10-23T06:52:45.940Z,12.13
2022-10-23T06:55:12.463Z,12.16
2022-10-23T06:57:38.810Z,12.18
2022-10-23T07:00:07.365Z,12.21
2022-10-23T07:02:33.673Z,12.26
2022-10-23T07:04:59.992Z,12.29
2022-10-23T07:07:26.354Z,12.31
2022-10-23T07:09:52.643Z,12.35
2022-10-23T07:12:18.935Z,12.38
2022-10-23T07:14:45.253Z,12.44
2022-10-23T07:17:11.534Z,12.47
2022-10-23T07:19:37.858Z,12.52
2022-10-23T07:22:04.178Z,12.55
2022-10-23T07:24:31.860Z,12.60
2022-10-23T07:26:58.243Z,12.65
2022-10-23T07:29:24.534Z,12.69
2022-10-23T07:31:50.811Z,12.70
2022-10-23T07:34:17.119Z,12.75
2022-10-23T07:36:43.403Z,12.78
2022-10-23T07:39:09.774Z,12.84
2022-10-23T07:41:36.085Z,12.91
2022-10-23T07:44:02.443Z,12.97
2022-10-23T07:46:28.750Z,13.06
2022-10-23T07:48:55.110Z,13.13
2022-10-23T07:51:21.513Z,13.22
2022-10-23T07:53:47.884Z,13.31
2022-10-23T07:56:20.481Z,13.41
2022-10-23T07:58:46.791Z,13.52
2022-10-23T08:01:18.075Z,13.61
2022-10-23T08:03:44.479Z,13.72
2022-10-23T08:06:10.886Z,13.81
2022-10-23T08:08:37.302Z,13.90
2022-10-23T08:11:03.630Z,13.99
2022-10-23T08:13:30.029Z,14.02
2022-10-23T08:15:56.849Z,14.16
2022-10-23T08:18:23.138Z,14.25
2022-10-23T08:20:51.084Z,14.34
2022-10-23T08:23:18.461Z,14.44
2022-10-23T08:25:45.001Z,14.55
2022-10-23T08:28:11.754Z,14.63
2022-10-23T08:30:38.255Z,14.73
2022-10-23T08:33:05.313Z,14.84
2022-10-23T08:35:35.130Z,14.98
2022-10-23T08:38:01.411Z,15.09
2022-10-23T08:40:27.815Z,15.22
2022-10-23T08:42:59.215Z,15.31
2022-10-23T08:45:44.373Z,15.45
2022-10-23T08:48:17.743Z,15.60
2022-10-23T08:50:48.955Z,15.72
2022-10-23T08:53:20.349Z,15.85
2022-10-23T08:55:51.765Z,15.98
2022-10-23T08:58:24.203Z,16.04
2022-10-23T09:00:51.486Z,16.22
2022-10-23T09:03:18.252Z,16.35
2022-10-23T09:05:59.851Z,16.44
2022-10-23T09:08:48.389Z,16.53
2022-10-23T09:11:17.535Z,16.62
2022-10-23T09:13:43.805Z,16.71
2022-10-23T09:16:13.130Z,16.76
2022-10-23T09:18:41.277Z,16.82
2022-10-23T09:21:10.882Z,16.86
2022-10-23T09:23:37.832Z,16.91
2022-10-23T09:26:11.760Z,16.94
2022-10-23T09:28:43.290Z,16.99
2022-10-23T09:31:11.775Z,17.01
2022-10-23T09:33:38.645Z,17.05
2022-10-23T09:36:06.432Z,17.09
2022-10-23T09:38:32.720Z,17.13
2022-10-23T09:41:00.651Z,17.18
2022-10-23T09:43:27.658Z,17.26
2022-10-23T09:46:01.515Z,17.31
2022-10-23T09:48:27.800Z,17.36
2022-10-23T09:50:58.370Z,17.43
2022-10-23T09:53:37.022Z,17.49
2022-10-23T09:56:23.624Z,17.55
2022-10-23T09:58:55.474Z,17.64
2022-10-23T10:01:25.907Z,17.71
2022-10-23T10:03:52.893Z,17.81
2022-10-23T10:06:24.404Z,17.90
2022-10-23T10:08:52.874Z,18.00
2022-10-23T10:11:22.267Z,18.09
2022-10-23T10:13:55.699Z,18.17
2022-10-23T10:16:25.634Z,18.24
2022-10-23T10:19:12.039Z,18.31
2022-10-23T10:21:51.950Z,18.36
2022-10-23T10:24:24.572Z,18.40
2022-10-23T10:26:59.733Z,18.41
2022-10-23T10:29:30.788Z,18.45
2022-10-23T10:31:57.063Z,18.48
2022-10-23T10:34:32.782Z,18.49
2022-10-23T10:37:06.236Z,18.53
2022-10-23T10:39:53.046Z,18.56
2022-10-23T10:42:28.042Z,18.58
2022-10-23T10:44:57.455Z,18.62
2022-10-23T10:47:51.764Z,18.66
2022-10-23T10:50:22.179Z,18.71
2022-10-23T10:53:01.163Z,18.75
2022-10-23T10:55:37.774Z,18.75
2022-10-23T10:58:19.037Z,18.80
2022-10-23T11:00:49.552Z,18.84
2022-10-23T11:03:37.636Z,18.87
2022-10-23T11:06:11.662Z,18.91
2022-10-23T11:08:50.002Z,18.94
2022-10-23T11:11:26.818Z,18.95
2022-10-23T11:13:53.906Z,18.98
2022-10-23T11:16:35.960Z,18.99
2022-10-23T11:19:17.749Z,19.04
2022-10-23T11:21:53.302Z,19.07
2022-10-23T11:24:25.990Z,19.10
2022-10-23T11:27:00.019Z,19.14
2022-10-23T11:29:32.469Z,19.20
2022-10-23T11:32:17.241Z,19.28
2022-10-23T11:35:03.933Z,19.39
2022-10-23T11:37:30.680Z,19.48
2022-10-23T11:39:59.907Z,19.53
2022-10-23T11:42:32.749Z,19.57
2022-10-23T11:44:59.255Z,19.62
2022-10-23T11:47:39.681Z,19.72
2022-10-23T11:50:06.993Z,19.85
2022-10-23T11:53:12.791Z,19.99
2022-10-23T11:55:41.986Z,20.15
2022-10-23T11:58:16.515Z,20.25
2022-10-23T12:01:12.067Z,20.33
2022-10-23T12:03:50.658Z,20.38
2022-10-23T12:06:27.935Z,20.42
2022-10-23T12:08:56.283Z,20.46
2022-10-23T12:11:27.542Z,20.49
2022-10-23T12:13:54.170Z,20.48
2022-10-23T12:16:20.568Z,20.48
2022-10-23T12:18:47.421Z,20.47
2022-10-23T12:21:18.423Z,20.50
2022-10-23T12:24:03.718Z,20.53
2022-10-23T12:26:45.975Z,20.57
2022-10-23T12:29:21.530Z,20.71
2022-10-23T12:31:48.242Z,20.90
2022-10-23T12:34:14.651Z,21.15
2022-10-23T12:36:44.474Z,21.44
2022-10-23T12:39:27.194Z,21.73
2022-10-23T12:41:53.730Z,21.99
2022-10-23T12:44:20.281Z,22.12
2022-10-23T12:46:48.195Z,22.30
2022-10-23T12:49:16.024Z,22.39
2022-10-23T12:51:42.432Z,22.33
2022-10-23T12:54:19.081Z,22.43
2022-10-23T12:56:45.894Z,22.50
2022-10-23T12:59:14.859Z,22.52
2022-10-23T13:01:43.333Z,22.50
2022-10-23T13:04:25.298Z,22.59
2022-10-23T13:06:52.092Z,22.89
2022-10-23T13:09:35.223Z,22.75
2022-10-23T13:12:04.796Z,22.98
2022-10-23T13:14:33.093Z,22.76
2022-10-23T13:17:01.135Z,22.69
2022-10-23T13:19:27.649Z,22.73
2022-10-23T13:21:54.072Z,22.56
2022-10-23T13:24:21.757Z,22.54
2022-10-23T13:26:49.013Z,22.69
2022-10-23T13:29:30.693Z,22.62
2022-10-23T13:31:57.340Z,22.42
2022-10-23T13:34:25.412Z,22.35
2022-10-23T13:36:53.598Z,22.29
2022-10-23T13:39:24.728Z,22.25
2022-10-23T13:41:51.156Z,22.14
2022-10-23T13:44:19.001Z,22.19
2022-10-23T13:46:45.319Z,22.25
2022-10-23T13:49:11.909Z,22.15
2022-10-23T13:51:57.615Z,22.22
2022-10-23T13:54:25.397Z,22.12
2022-10-23T13:56:52.362Z,22.17
2022-10-23T13:59:18.677Z,22.11
2022-10-23T14:01:48.725Z,22.06
2022-10-23T14:04:15.947Z,22.06
2022-10-23T14:06:42.718Z,21.96
2022-10-23T14:09:12.428Z,21.98
2022-10-23T14:11:38.966Z,21.98
2022-10-23T14:14:05.271Z,21.97
2022-10-23T14:16:31.674Z,21.87
2022-10-23T14:18:58.060Z,21.86
2022-10-23T14:21:24.659Z,21.88
2022-10-23T14:23:51.967Z,21.76
2022-10-23T14:26:20.026Z,21.74
2022-10-23T14:28:46.428Z,21.69
2022-10-23T14:31:14.522Z,21.70
2022-10-23T14:33:41.101Z,21.63
2022-10-23T14:36:07.998Z,21.56
2022-10-23T14:38:34.674Z,21.59
2022-10-23T14:41:01.305Z,21.59
2022-10-23T14:43:27.661Z,21.60
2022-10-23T14:45:53.965Z,21.56
2022-10-23T14:48:20.279Z,21.55
2022-10-23T14:50:48.069Z,21.57
2022-10-23T14:53:14.672Z,21.51
2022-10-23T14:55:41.005Z,21.49
2022-10-23T14:58:07.619Z,21.46
2022-10-23T15:00:33.941Z,21.37
2022-10-23T15:03:00.329Z,21.36
2022-10-23T15:05:26.684Z,21.33
2022-10-23T15:07:54.623Z,21.29
2022-10-23T15:10:20.919Z,21.26
2022-10-23T15:12:47.521Z,21.14
2022-10-23T15:15:13.824Z,21.06
2022-10-23T15:17:41.396Z,21.12
2022-10-23T15:20:08.773Z,21.02
2022-10-23T15:22:35.127Z,20.96
2022-10-23T15:25:01.438Z,20.86
2022-10-23T15:27:27.709Z,20.74
2022-10-23T15:29:54.003Z,20.69
2022-10-23T15:32:20.354Z,20.69
2022-10-23T15:34:49.577Z,20.70
2022-10-23T15:37:15.918Z,20.69
2022-10-23T15:39:42.296Z,20.62
2022-10-23T15:42:10.085Z,20.43
2022-10-23T15:44:36.533Z,20.31
2022-10-23T15:47:03.120Z,20.15
2022-10-23T15:49:29.575Z,20.01
2022-10-23T15:51:56.222Z,19.89
2022-10-23T15:54:22.808Z,19.84
2022-10-23T15:56:50.946Z,19.78
2022-10-23T15:59:18.005Z,19.65
2022-10-23T16:01:44.397Z,19.64
2022-10-23T16:04:17.206Z,19.56
2022-10-23T16:06:44.114Z,19.48
2022-10-23T16:09:10.573Z,19.40
2022-10-23T16:11:39.002Z,19.48
2022-10-23T16:14:05.874Z,19.51
2022-10-23T16:16:32.611Z,19.41
2022-10-23T16:19:00.429Z,19.34
2022-10-23T16:21:28.199Z,19.30
2022-10-23T16:23:55.431Z,19.34
2022-10-23T16:26:22.336Z,19.32
2022-10-23T16:28:52.653Z,19.18
2022-10-23T16:31:20.573Z,19.13
2022-10-23T16:33:47.552Z,19.03
2022-10-23T16:36:14.033Z,18.94
2022-10-23T16:38:40.464Z,18.94
2022-10-23T16:41:07.202Z,18.88
2022-10-23T16:43:33.832Z,18.92
2022-10-23T16:46:20.539Z,18.87
2022-10-23T16:48:47.079Z,18.82
2022-10-23T16:51:14.865Z,18.77
2022-10-23T16:53:42.019Z,18.82
2022-10-23T16:56:09.827Z,18.85
2022-10-23T16:58:36.500Z,18.79
2022-10-23T17:01:05.758Z,18.75
2022-10-23T17:03:36.429Z,18.64
2022-10-23T17:06:06.115Z,18.69
2022-10-23T17:08:35.332Z,18.70
2022-10-23T17:11:09.346Z,18.59
2022-10-23T17:13:36.771Z,18.63
2022-10-23T17:16:04.996Z,18.60
2022-10-23T17:18:31.428Z,18.49
2022-10-23T17:20:58.212Z,18.52
2022-10-23T17:23:24.711Z,18.46
2022-10-23T17:25:51.213Z,18.46
2022-10-23T17:28:17.758Z,18.42
2022-10-23T17:30:44.094Z,18.35
2022-10-23T17:33:10.451Z,18.30
2022-10-23T17:35:37.883Z,18.24
2022-10-23T17:38:04.166Z,18.18
2022-10-23T17:40:32.831Z,18.21
2022-10-23T17:42:59.659Z,18.16
2022-10-23T17:45:26.128Z,18.19
2022-10-23T17:47:52.740Z,18.19
2022-10-23T17:50:19.486Z,18.25
2022-10-23T17:52:47.708Z,18.21
2022-10-23T17:55:14.218Z,18.13
2022-10-23T17:57:40.703Z,18.16
2022-10-23T18:00:07.303Z,18.15
2022-10-23T18:02:33.675Z,18.12
2022-10-23T18:04:59.971Z,18.13
2022-10-23T18:07:26.567Z,18.12
2022-10-23T18:09:52.995Z,18.06
2022-10-23T18:12:19.484Z,18.12
2022-10-23T18:14:45.774Z,18.08
2022-10-23T18:17:12.057Z,18.10
2022-10-23T18:19:38.367Z,18.04
2022-10-23T18:22:04.726Z,18.06
2022-10-23T18:24:31.102Z,17.98
2022-10-23T18:26:57.877Z,17.97
2022-10-23T18:29:24.183Z,17.96
2022-10-23T18:31:50.643Z,18.00
2022-10-23T18:34:21.410Z,18.01
2022-10-23T18:36:48.411Z,17.99
2022-10-23T18:39:15.928Z,17.93
2022-10-23T18:41:43.416Z,17.94
2022-10-23T18:44:10.465Z,17.92
2022-10-23T18:46:36.993Z,17.98
2022-10-23T18:51:44.571Z,17.92
2022-10-23T18:54:12.238Z,17.95
2022-10-23T18:56:39.712Z,17.95
2022-10-23T18:59:07.831Z,17.94
2022-10-23T19:01:34.901Z,17.94
2022-10-23T19:04:01.619Z,17.98
2022-10-23T19:06:28.625Z,17.88
2022-10-23T19:08:55.040Z,17.93
2022-10-23T19:11:23.153Z,17.92
2022-10-23T19:13:49.660Z,17.91
2022-10-23T19:16:17.588Z,17.91
2022-10-23T19:18:50.129Z,17.90
2022-10-23T19:21:18.111Z,17.90
2022-10-23T19:23:44.566Z,17.82
2022-10-23T19:26:13.231Z,17.76
2022-10-23T19:28:41.081Z,17.87
2022-10-23T19:31:07.845Z,17.90
2022-10-23T19:33:36.005Z,17.91
2022-10-23T19:36:05.459Z,17.88
2022-10-23T19:38:32.428Z,17.88
2022-10-23T19:40:58.723Z,17.93
2022-10-23T19:43:25.077Z,17.83
2022-10-23T19:45:51.353Z,17.87
2022-10-23T19:48:17.715Z,17.90
2022-10-23T19:50:44.200Z,17.94
2022-10-23T19:53:10.641Z,17.98
2022-10-23T19:55:37.027Z,18.00
2022-10-23T19:58:03.370Z,17.96
2022-10-23T20:00:29.879Z,18.04
2022-10-23T20:02:56.182Z,17.98
2022-10-23T20:05:22.474Z,18.09
2022-10-23T20:07:48.833Z,17.95
2022-10-23T20:10:16.098Z,17.99
2022-10-23T20:12:47.463Z,17.81
2022-10-23T20:15:23.449Z,17.93
2022-10-23T20:17:49.749Z,17.94
2022-10-23T20:20:16.071Z,17.96
2022-10-23T20:22:44.136Z,17.90
2022-10-23T20:25:10.606Z,17.88
2022-10-23T20:30:08.436Z,18.09
2022-10-23T20:32:34.777Z,18.11
2022-10-23T20:35:01.098Z,18.12
2022-10-23T20:37:27.522Z,18.22
2022-10-23T20:39:56.603Z,18.26
2022-10-23T20:42:22.883Z,18.32
2022-10-23T20:44:49.248Z,18.32
2022-10-23T20:47:15.552Z,18.34
2022-10-23T20:49:41.854Z,18.40
2022-10-23T20:52:08.158Z,18.34
2022-10-23T20:54:36.249Z,18.33
2022-10-23T20:57:02.552Z,18.32
2022-10-23T20:59:28.900Z,18.25
2022-10-23T21:01:56.378Z,18.41
2022-10-23T21:04:25.080Z,18.45
2022-10-23T21:07:09.021Z,18.41
2022-10-23T21:09:37.672Z,18.17
2022-10-23T21:12:04.262Z,18.05
2022-10-23T21:14:30.605Z,17.98
2022-10-23T21:16:57.003Z,17.91
2022-10-23T21:19:23.367Z,17.90
2022-10-23T21:21:49.737Z,17.84
2022-10-23T21:24:16.691Z,17.83
2022-10-23T21:26:43.562Z,17.80
2022-10-23T21:29:18.875Z,17.78
2022-10-23T21:31:45.642Z,17.73
2022-10-23T21:34:12.027Z,17.54
2022-10-23T21:36:53.929Z,17.53
2022-10-23T21:39:24.809Z,17.54
2022-10-23T21:41:51.131Z,17.44
2022-10-23T21:44:17.464Z,17.46
2022-10-23T21:46:44.147Z,17.37
2022-10-23T21:49:11.452Z,17.34
2022-10-23T21:51:37.948Z,17.34
2022-10-23T21:54:05.799Z,17.35
2022-10-23T21:56:33.883Z,17.36
2022-10-23T21:59:01.663Z,17.31
2022-10-23T22:01:28.805Z,17.30
2022-10-23T22:03:56.126Z,17.28
2022-10-23T22:06:23.866Z,17.20
2022-10-23T22:08:51.376Z,17.24
2022-10-23T22:11:17.952Z,17.24
2022-10-23T22:13:44.760Z,17.20
2022-10-23T22:16:12.074Z,17.14
2022-10-23T22:18:38.532Z,17.11
2022-10-23T22:21:06.858Z,17.12
2022-10-23T22:23:33.552Z,17.12
2022-10-23T22:26:03.915Z,17.07
2022-10-23T22:28:30.305Z,17.05
2022-10-23T22:30:56.744Z,17.06
2022-10-23T22:33:23.154Z,17.06
2022-10-23T22:35:49.576Z,17.04
2022-10-23T22:38:15.966Z,17.03
2022-10-23T22:40:46.451Z,17.02
2022-10-23T22:43:13.170Z,17.03
2022-10-23T22:45:39.621Z,17.06
2022-10-23T22:48:06.022Z,17.12
2022-10-23T22:50:32.358Z,17.06
2022-10-23T22:52:58.733Z,17.06
2022-10-23T22:55:25.099Z,17.11
2022-10-23T22:57:51.558Z,17.11
2022-10-23T23:00:18.017Z,17.16
2022-10-23T23:02:44.416Z,17.10
2022-10-23T23:05:12.510Z,17.09
2022-10-23T23:07:38.842Z,17.08
2022-10-23T23:10:05.325Z,17.08
2022-10-23T23:12:31.611Z,17.08
2022-10-23T23:15:00.202Z,17.12
2022-10-23T23:17:26.503Z,17.08
2022-10-23T23:19:52.780Z,17.16
2022-10-23T23:22:19.103Z,17.15
2022-10-23T23:24:45.484Z,17.12
2022-10-23T23:27:11.775Z,17.13
2022-10-23T23:29:38.095Z,17.11
2022-10-23T23:32:06.144Z,17.17
2022-10-23T23:34:32.560Z,17.18
2022-10-23T23:36:58.929Z,17.20
2022-10-23T23:39:26.123Z,17.24
2022-10-23T23:41:52.642Z,17.18
2022-10-23T23:44:19.065Z,17.16
2022-10-23T23:46:45.542Z,17.11
2022-10-23T23:49:11.937Z,17.16
2022-10-23T23:51:38.364Z,17.19
2022-10-23T23:54:04.799Z,17.23
2022-10-23T23:56:31.981Z,17.23
2022-10-23T23:58:58.789Z,17.27
